Time;durP1;ratioP1;P1;durP2;ratioP2;P2;SDS_P1;SDS_P2;PMS_P1;PMS_P2;Temp;Humidity;BMP_temperature;BMP_pressure;BME280_temperature;BME280_humidity;BME280_pressure;Samples;Min_cycle;Max_cycle;Signal;HPM_P1;HPM_P2
2023/07/08 00:00:49;;;;;;;;;;;;;;;26.78;42.84;96954.94;4236733;28;6310;-63
2023/07/08 00:02:53;;;;;;;;;;;;;;;26.80;42.91;96941.88;4236831;28;5718;-63
2023/07/08 00:04:56;;;;;;;;;;;;;;;26.79;43.01;96937.56;4236423;28;5841;-63
2023/07/08 00:06:59;;;;;;;;;;;;;;;26.79;43.06;96951.13;4236628;28;5627;-63
2023/07/08 00:09:02;;;;;;;;;;;;;;;26.78;43.14;96944.09;4228176;28;5707;-63
2023/07/08 00:11:11;;;;;;;;;;;;;;;26.77;43.08;96943.28;4235669;28;5707;-63
2023/07/08 00:13:13;;;;;;;;;;;;;;;26.78;42.82;96938.66;4236468;28;5703;-63
2023/07/08 00:15:17;;;;;;;;;;;;;;;26.78;42.99;96935.97;4236294;28;5926;-63
2023/07/08 00:17:19;;;;;;;;;;;;;;;26.78;43.05;96938.66;4236076;28;6408;-63
2023/07/08 00:19:23;;;;;;;;;;;;;;;26.78;43.07;96936.75;4235544;27;7712;-63
2023/07/08 00:21:26;;;;;;;;;;;;;;;26.78;42.99;96938.66;4232007;27;5739;-63
2023/07/08 00:23:29;;;;;;;;;;;;;;;26.77;43.22;96942.50;4231866;27;5687;-63
2023/07/08 00:25:33;;;;;;;;;;;;;;;26.78;43.41;96933.25;4233548;27;5691;-62
2023/07/08 00:27:37;;;;;;;;;;;;;;;26.77;43.48;96929.72;4235447;28;5692;-62
2023/07/08 00:29:40;;;;;;;;;;;;;;;26.77;43.21;96932.44;4235639;28;5696;-63
2023/07/08 00:31:43;;;;;;;;;;;;;;;26.75;43.70;96923.81;4236278;28;5601;-63
2023/07/08 00:33:46;;;;;;;;;;;;;;;26.78;43.68;96933.25;4235687;28;5529;-63
2023/07/08 00:35:48;;;;;;;;;;;;;;;26.76;43.72;96930.03;4236160;28;5628;-63
2023/07/08 00:37:53;;;;;;;;;;;;;;;26.73;43.68;96930.59;4236264;28;5086;-63
2023/07/08 00:39:56;;;;;;;;;;;;;;;26.69;43.52;96931.19;4236036;28;5711;-62
2023/07/08 00:42:01;;;;;;;;;;;;;;;26.67;43.88;96921.75;4232939;27;5784;-63
2023/07/08 00:44:05;;;;;;;;;;;;;;;26.67;43.88;96922.53;4235722;28;5514;-62
2023/07/08 00:46:18;;;;;;;;;;;;;;;26.67;43.62;96917.13;4226562;28;5703;-62
2023/07/08 00:48:24;;;;;;;;;;;;;;;26.67;43.83;96925.25;4229522;28;5686;-63
2023/07/08 00:50:27;;;;;;;;;;;;;;;26.67;43.88;96933.38;4235874;28;5695;-63
2023/07/08 00:52:30;;;;;;;;;;;;;;;26.67;43.99;96930.69;4235906;28;5774;-63
2023/07/08 00:54:33;;;;;;;;;;;;;;;26.67;43.78;96927.97;4235655;28;7012;-63
2023/07/08 00:56:41;;;;;;;;;;;;;;;26.66;43.85;96931.78;4235560;28;5729;-62
2023/07/08 00:58:49;;;;;;;;;;;;;;;26.67;43.91;96932.59;4223844;27;5748;-62
2023/07/08 01:00:56;;;;;;;;;;;;;;;26.67;43.61;96936.09;4234482;28;6291;-63
2023/07/08 01:03:00;;;;;;;;;;;;;;;26.68;43.59;96934.19;4235465;28;5690;-63
2023/07/08 01:05:10;;;;;;;;;;;;;;;26.67;43.88;96940.72;4227163;28;5684;-63
2023/07/08 01:07:13;;;;;;;;;;;;;;;26.67;43.73;96938.81;4235728;28;6373;-63
2023/07/08 01:09:17;;;;;;;;;;;;;;;26.67;43.42;96941.53;4235565;28;5609;-63
2023/07/08 01:11:22;;;;;;;;;;;;;;;26.66;43.46;96939.91;4235684;28;5882;-63
2023/07/08 01:13:25;;;;;;;;;;;;;;;26.66;43.58;96947.25;4235330;28;5679;-63
2023/07/08 01:15:36;;;;;;;;;;;;;;;26.67;43.46;96963.22;4234990;27;5601;-63
2023/07/08 01:17:40;;;;;;;;;;;;;;;26.67;43.77;96959.69;4235475;28;5593;-63
2023/07/08 01:19:43;;;;;;;;;;;;;;;26.66;43.47;96975.16;4235336;28;5593;-63
2023/07/08 01:21:59;;;;;;;;;;;;;;;26.66;43.41;96964.31;4235420;28;5581;-63
2023/07/08 01:24:05;;;;;;;;;;;;;;;26.67;43.45;96968.63;4227058;28;5686;-63
2023/07/08 01:26:08;;;;;;;;;;;;;;;26.66;43.62;96964.31;4220929;27;5592;-63
2023/07/08 01:28:12;;;;;;;;;;;;;;;26.64;43.26;96971.94;4219784;28;5846;-63
2023/07/08 01:30:16;;;;;;;;;;;;;;;26.66;43.24;96963.50;4233557;27;5786;-63
2023/07/08 01:32:19;;;;;;;;;;;;;;;26.64;43.14;96954.88;4227561;27;5597;-63
2023/07/08 01:34:22;;;;;;;;;;;;;;;26.63;43.19;96954.06;4232948;27;5725;-63
2023/07/08 01:36:26;;;;;;;;;;;;;;;26.63;43.19;96954.06;4229654;27;5771;-63
2023/07/08 01:38:30;;;;;;;;;;;;;;;26.64;43.01;96955.69;4217036;28;5703;-63
2023/07/08 01:40:35;;;;;;;;;;;;;;;26.65;43.25;96956.47;4234934;28;5197;-63
2023/07/08 01:42:37;;;;;;;;;;;;;;;26.65;42.84;96943.72;4233544;28;5748;-63
2023/07/08 01:44:40;;;;;;;;;;;;;;;26.66;43.12;96941.81;4234398;28;5839;-63
2023/07/08 01:46:43;;;;;;;;;;;;;;;26.66;42.96;96948.06;4234861;28;5641;-63
2023/07/08 01:48:51;;;;;;;;;;;;;;;26.66;42.98;96939.09;4233556;28;5605;-63
2023/07/08 01:50:58;;;;;;;;;;;;;;;26.67;42.79;96930.69;4234778;28;5586;-62
2023/07/08 01:53:05;;;;;;;;;;;;;;;26.67;43.05;96927.97;4234449;28;5939;-62
2023/07/08 01:55:09;;;;;;;;;;;;;;;26.67;42.97;96927.97;4230033;28;5738;-63
2023/07/08 01:57:12;;;;;;;;;;;;;;;26.67;42.77;96919.84;4234705;28;5708;-63
2023/07/08 01:59:15;;;;;;;;;;;;;;;26.68;42.76;96917.94;4234520;28;5704;-63
2023/07/08 02:01:18;;;;;;;;;;;;;;;26.68;42.76;96917.94;4234735;28;5686;-63
2023/07/08 02:03:21;;;;;;;;;;;;;;;26.68;42.78;96921.44;4235052;28;5718;-63
2023/07/08 02:05:24;;;;;;;;;;;;;;;26.69;42.67;96923.06;4234639;28;5725;-63
2023/07/08 02:07:27;;;;;;;;;;;;;;;26.68;43.09;96918.72;4225393;27;8362;-62
2023/07/08 02:09:30;;;;;;;;;;;;;;;26.69;43.18;96920.34;4234391;28;5790;-63
2023/07/08 02:11:34;;;;;;;;;;;;;;;26.66;42.99;96920.94;4234480;28;5789;-62
2023/07/08 02:13:37;;;;;;;;;;;;;;;26.67;43.35;96906.28;4234138;28;5695;-63
2023/07/08 02:15:40;;;;;;;;;;;;;;;26.67;43.29;96908.97;4234296;28;5696;-63
2023/07/08 02:17:43;;;;;;;;;;;;;;;26.68;43.12;96917.94;4234268;28;5517;-63
2023/07/08 02:19:46;;;;;;;;;;;;;;;26.68;43.19;96928.78;4234244;28;5777;-63
2023/07/08 02:21:49;;;;;;;;;;;;;;;26.67;43.39;96919.84;4234383;28;5746;-63
2023/07/08 02:23:53;;;;;;;;;;;;;;;26.67;43.38;96919.84;4230119;28;5615;-63
2023/07/08 02:25:56;;;;;;;;;;;;;;;26.64;43.33;96917.72;4233310;28;5960;-62
2023/07/08 02:28:01;;;;;;;;;;;;;;;26.62;43.66;96914.50;4234005;28;5754;-62
2023/07/08 02:30:06;;;;;;;;;;;;;;;26.61;43.43;96912.84;4226265;28;5605;-62
2023/07/08 02:32:10;;;;;;;;;;;;;;;26.59;43.51;96909.63;4234286;28;5728;-63
2023/07/08 02:34:13;;;;;;;;;;;;;;;26.59;43.41;96909.63;4234141;28;5586;-63
2023/07/08 02:36:15;;;;;;;;;;;;;;;26.59;43.77;96909.63;4234298;28;5609;-63
2023/07/08 02:38:18;;;;;;;;;;;;;;;26.57;43.71;96911.84;4234642;28;5601;-62
2023/07/08 02:40:22;;;;;;;;;;;;;;;26.57;43.77;96906.41;4234133;28;5621;-63
2023/07/08 02:42:25;;;;;;;;;;;;;;;26.56;43.69;96910.22;4233555;27;5679;-63
2023/07/08 02:44:29;;;;;;;;;;;;;;;26.57;44.01;96916.47;4233920;28;5691;-63
2023/07/08 02:46:32;;;;;;;;;;;;;;;26.57;43.70;96917.25;4233856;28;5679;-62
2023/07/08 02:48:35;;;;;;;;;;;;;;;26.57;43.71;96928.09;4234028;28;5823;-63
2023/07/08 02:50:38;;;;;;;;;;;;;;;26.60;43.96;96932.13;4233276;28;6291;-63
2023/07/08 02:52:41;;;;;;;;;;;;;;;26.61;43.87;96939.97;4233804;28;5130;-63
2023/07/08 02:54:44;;;;;;;;;;;;;;;26.63;43.91;96937.81;4237280;28;5695;-63
2023/07/08 02:56:46;;;;;;;;;;;;;;;26.64;43.71;96944.84;4237696;28;5691;-63
2023/07/08 02:58:49;;;;;;;;;;;;;;;26.64;43.91;96954.88;4228910;27;5841;-62
2023/07/08 03:00:54;;;;;;;;;;;;;;;26.65;43.93;96946.44;4237372;28;5585;-63
2023/07/08 03:02:57;;;;;;;;;;;;;;;26.64;43.95;96939.41;4237727;28;5844;-63
2023/07/08 03:05:00;;;;;;;;;;;;;;;26.64;44.00;96934.00;4237340;28;5771;-63
2023/07/08 03:07:04;;;;;;;;;;;;;;;26.62;43.78;96940.81;4229583;28;5841;-65
2023/07/08 03:09:07;;;;;;;;;;;;;;;26.64;44.06;96954.88;4237423;28;5778;-63
2023/07/08 03:11:11;;;;;;;;;;;;;;;26.64;43.95;96961.09;4237335;28;5617;-63
2023/07/08 03:13:13;;;;;;;;;;;;;;;26.65;44.04;96962.72;4236434;27;5826;-63
2023/07/08 03:15:16;;;;;;;;;;;;;;;26.66;44.01;96967.03;4237374;28;6275;-63
2023/07/08 03:17:21;;;;;;;;;;;;;;;26.66;43.85;96986.00;4237149;28;5831;-63
2023/07/08 03:19:24;;;;;;;;;;;;;;;26.67;43.77;96970.56;4236926;28;5699;-63
2023/07/08 03:21:26;;;;;;;;;;;;;;;26.66;44.11;96980.59;4236979;28;5621;-63
2023/07/08 03:23:29;;;;;;;;;;;;;;;26.65;44.13;96981.69;4236849;28;5501;-63
2023/07/08 03:25:32;;;;;;;;;;;;;;;26.64;44.64;96961.09;4236966;28;5585;-63
2023/07/08 03:27:35;;;;;;;;;;;;;;;26.58;44.60;96950.59;4237229;28;5721;-63
2023/07/08 03:29:38;;;;;;;;;;;;;;;26.52;44.80;96936.31;4235835;27;5675;-63
2023/07/08 03:31:41;;;;;;;;;;;;;;;26.50;45.07;96943.13;4236830;28;5680;-63
2023/07/08 03:33:45;;;;;;;;;;;;;;;26.50;45.74;96943.91;4237018;28;5695;-63
2023/07/08 03:35:49;;;;;;;;;;;;;;;26.48;45.43;96951.53;4237069;28;6338;-63
2023/07/08 03:37:52;;;;;;;;;;;;;;;26.44;45.83;96960.56;4237129;28;5906;-63
2023/07/08 03:39:54;;;;;;;;;;;;;;;26.44;46.04;96944.28;4237120;28;5976;-63
2023/07/08 03:41:57;;;;;;;;;;;;;;;26.41;46.15;96951.09;4232051;27;5623;-64
2023/07/08 03:44:00;;;;;;;;;;;;;;;26.37;46.51;96961.69;4239152;27;5797;-62
2023/07/08 03:46:03;;;;;;;;;;;;;;;26.36;46.61;96959.25;4228128;28;5754;-62
2023/07/08 03:48:06;;;;;;;;;;;;;;;26.37;47.20;96971.75;4236978;28;5617;-62
2023/07/08 03:50:21;;;;;;;;;;;;;;;26.39;47.27;96970.38;4234198;28;5680;-62
2023/07/08 03:52:24;;;;;;;;;;;;;;;26.40;47.03;96966.56;4237061;28;5597;-63
2023/07/08 03:54:28;;;;;;;;;;;;;;;26.28;47.15;96976.19;4236870;28;5614;-63
2023/07/08 03:56:30;;;;;;;;;;;;;;;26.19;47.54;96986.84;4236887;28;5652;-63
2023/07/08 03:58:33;;;;;;;;;;;;;;;26.18;47.97;96979.81;4234544;28;5720;-61
2023/07/08 04:00:36;;;;;;;;;;;;;;;26.19;47.86;96986.84;4236132;28;5663;-61
2023/07/08 04:02:39;;;;;;;;;;;;;;;26.19;48.13;96994.97;4235489;27;5758;-61
2023/07/08 04:04:42;;;;;;;;;;;;;;;26.16;48.18;97000.13;4235080;28;5739;-61
2023/07/08 04:06:46;;;;;;;;;;;;;;;26.11;48.79;96996.41;4236325;28;6202;-61
2023/07/08 04:08:49;;;;;;;;;;;;;;;26.11;48.51;97001.00;4236273;28;5980;-61
2023/07/08 04:10:52;;;;;;;;;;;;;;;26.13;48.83;97015.06;4236404;28;5516;-61
2023/07/08 04:12:54;;;;;;;;;;;;;;;26.16;49.05;97016.41;4235945;28;5733;-61
2023/07/08 04:14:58;;;;;;;;;;;;;;;26.13;49.01;97021.31;4236329;28;5509;-61
2023/07/08 04:17:01;;;;;;;;;;;;;;;26.11;49.00;97028.91;4236762;27;5778;-61
2023/07/08 04:19:03;;;;;;;;;;;;;;;26.11;49.22;97031.63;4225751;27;5593;-61
2023/07/08 04:21:07;;;;;;;;;;;;;;;26.09;49.29;97024.88;4235902;28;5596;-62
2023/07/08 04:23:14;;;;;;;;;;;;;;;26.13;49.63;97028.63;4235981;28;5608;-61
2023/07/08 04:25:19;;;;;;;;;;;;;;;26.10;49.74;97026.50;4236114;28;5739;-62
2023/07/08 04:27:21;;;;;;;;;;;;;;;26.03;49.67;97021.41;4236121;28;5608;-62
2023/07/08 04:29:25;;;;;;;;;;;;;;;26.06;50.04;97026.28;4243604;27;5501;-61
2023/07/08 04:31:27;;;;;;;;;;;;;;;26.12;49.90;97029.72;4236030;28;5088;-62
2023/07/08 04:33:30;;;;;;;;;;;;;;;26.16;50.11;97029.94;4234514;28;5572;-61
2023/07/08 04:35:33;;;;;;;;;;;;;;;26.18;50.13;97038.63;4198361;28;5677;-61
2023/07/08 04:37:37;;;;;;;;;;;;;;;26.16;50.07;97035.38;4198740;28;5677;-61
2023/07/08 04:39:41;;;;;;;;;;;;;;;26.09;50.62;97041.13;4201515;28;5087;-61
2023/07/08 04:41:44;;;;;;;;;;;;;;;25.95;50.69;97041.00;4200643;28;6490;-61
2023/07/08 04:43:47;;;;;;;;;;;;;;;25.86;51.16;97061.66;4200773;28;5650;-61
2023/07/08 04:45:53;;;;;;;;;;;;;;;25.71;50.91;97068.03;4202061;28;5741;-61
2023/07/08 04:47:56;;;;;;;;;;;;;;;25.47;51.55;97073.31;4203221;28;5685;-61
2023/07/08 04:49:59;;;;;;;;;;;;;;;25.30;51.81;97083.72;4193830;28;5712;-61
2023/07/08 04:52:02;;;;;;;;;;;;;;;25.16;51.80;97082.72;4190937;28;5693;-62
2023/07/08 04:54:05;;;;;;;;;;;;;;;25.09;52.13;97082.22;4200404;28;5752;-61
2023/07/08 04:56:10;;;;;;;;;;;;;;;25.02;52.19;97089.81;4201134;28;5700;-61
2023/07/08 04:58:13;;;;;;;;;;;;;;;24.88;51.92;97095.81;4199727;28;5686;-63
2023/07/08 05:00:19;;;;;;;;;;;;;;;24.76;51.94;97089.09;4194937;28;5722;-62
2023/07/08 05:02:22;;;;;;;;;;;;;;;24.67;52.15;97088.84;4193726;28;5689;-62
2023/07/08 05:04:25;;;;;;;;;;;;;;;24.58;52.63;97079.72;4199485;28;5816;-62
2023/07/08 05:06:28;;;;;;;;;;;;;;;24.47;52.64;97088.94;4201788;28;5688;-63
2023/07/08 05:08:31;;;;;;;;;;;;;;;24.44;52.32;97084.88;4200888;28;5859;-61
2023/07/08 05:10:34;;;;;;;;;;;;;;;24.42;52.68;97083.53;4200136;28;5708;-60
2023/07/08 05:12:38;;;;;;;;;;;;;;;24.37;52.70;97093.28;4198638;28;5898;-61
2023/07/08 05:14:42;;;;;;;;;;;;;;;24.37;52.76;97093.28;4192800;28;5732;-61
2023/07/08 05:16:45;;;;;;;;;;;;;;;24.38;52.31;97084.09;4200702;28;5730;-61
2023/07/08 05:18:49;;;;;;;;;;;;;;;24.39;52.19;97091.13;4201504;28;5701;-62
2023/07/08 05:20:52;;;;;;;;;;;;;;;24.34;52.41;97099.22;4201582;28;5681;-62
2023/07/08 05:22:55;;;;;;;;;;;;;;;24.32;52.40;97095.97;4201272;28;5655;-63
2023/07/08 05:24:58;;;;;;;;;;;;;;;24.33;52.25;97086.78;4193501;28;5706;-63
2023/07/08 05:27:00;;;;;;;;;;;;;;;24.32;52.42;97101.38;4200544;28;5847;-63
2023/07/08 05:29:05;;;;;;;;;;;;;;;24.33;52.47;97124.63;4200679;28;5759;-63
2023/07/08 05:31:08;;;;;;;;;;;;;;;24.34;52.29;97126.22;4195232;28;5813;-63
2023/07/08 05:33:11;;;;;;;;;;;;;;;24.27;52.22;97108.69;4200816;28;5688;-63
2023/07/08 05:35:14;;;;;;;;;;;;;;;24.21;52.90;97120.56;4230035;28;5691;-63
2023/07/08 05:37:18;;;;;;;;;;;;;;;24.16;52.62;97128.69;4231788;27;5729;-62
2023/07/08 05:39:21;;;;;;;;;;;;;;;24.11;52.71;97143.78;4233847;28;5759;-63
2023/07/08 05:41:24;;;;;;;;;;;;;;;24.13;52.96;97143.53;4233703;28;5726;-62
2023/07/08 05:43:27;;;;;;;;;;;;;;;24.17;52.54;97139.22;4231208;27;5713;-63
2023/07/08 05:45:32;;;;;;;;;;;;;;;24.15;52.64;97127.88;4234082;27;5691;-63
2023/07/08 05:47:35;;;;;;;;;;;;;;;24.16;52.71;97137.59;4227578;27;5959;-61
2023/07/08 05:49:38;;;;;;;;;;;;;;;24.13;52.93;97137.34;4226450;28;6310;-61
2023/07/08 05:51:41;;;;;;;;;;;;;;;24.09;52.82;97139.75;4226215;27;6514;-60
2023/07/08 05:53:44;;;;;;;;;;;;;;;24.06;52.83;97132.19;4230585;27;6040;-60
2023/07/08 05:55:46;;;;;;;;;;;;;;;24.04;53.26;97142.47;4228864;28;5656;-61
2023/07/08 05:57:49;;;;;;;;;;;;;;;24.01;53.11;97132.19;4228736;27;6182;-60
2023/07/08 05:59:52;;;;;;;;;;;;;;;24.02;53.20;97140.03;4234111;28;5509;-61
2023/07/08 06:01:57;;;;;;;;;;;;;;;24.01;52.97;97132.19;4234434;28;5797;-61
2023/07/08 06:04:00;;;;;;;;;;;;;;;23.97;53.22;97136.50;4234346;28;5843;-61
2023/07/08 06:06:05;;;;;;;;;;;;;;;23.98;53.17;97148.94;4225814;27;5664;-61
2023/07/08 06:08:10;;;;;;;;;;;;;;;23.99;53.14;97145.16;4233715;28;5683;-61
2023/07/08 06:10:13;;;;;;;;;;;;;;;24.03;52.82;97151.66;4234374;28;5514;-61
2023/07/08 06:12:16;;;;;;;;;;;;;;;24.08;52.51;97146.25;4234532;28;5828;-64
2023/07/08 06:14:19;;;;;;;;;;;;;;;24.07;52.62;97155.41;4234230;28;8480;-64
2023/07/08 06:16:21;;;;;;;;;;;;;;;24.08;52.38;97157.03;4233239;28;5680;-63
2023/07/08 06:18:43;;;;;;;;;;;;;;;24.07;52.37;97158.94;4234940;27;5742;-61
2023/07/08 06:20:52;;;;;;;;;;;;;;;24.05;52.63;97161.09;4235042;27;5858;-61
2023/07/08 06:22:55;;;;;;;;;;;;;;;24.08;52.54;97160.53;4233759;28;7808;-64
2023/07/08 06:24:58;;;;;;;;;;;;;;;24.13;52.06;97167.03;4234384;28;5724;-65
2023/07/08 06:27:02;;;;;;;;;;;;;;;24.20;51.75;97172.97;4225666;28;5754;-65
2023/07/08 06:29:05;;;;;;;;;;;;;;;24.21;51.69;97180.00;4233318;28;5880;-65
2023/07/08 06:31:08;;;;;;;;;;;;;;;24.21;51.82;97197.00;4233973;28;5790;-64
2023/07/08 06:33:11;;;;;;;;;;;;;;;24.23;51.47;97199.44;4234150;28;5711;-64
2023/07/08 06:35:16;;;;;;;;;;;;;;;24.28;51.81;97212.97;4233936;28;5845;-64
2023/07/08 06:37:19;;;;;;;;;;;;;;;24.35;51.27;97218.91;4236303;27;5698;-64
2023/07/08 06:39:22;;;;;;;;;;;;;;;24.44;51.43;97217.28;4234216;28;5808;-64
2023/07/08 06:41:25;;;;;;;;;;;;;;;24.54;50.91;97213.78;4233984;28;5585;-64
2023/07/08 06:43:27;;;;;;;;;;;;;;;24.56;51.04;97219.72;4233819;28;5707;-64
2023/07/08 06:45:30;;;;;;;;;;;;;;;24.64;50.75;97219.16;4234439;28;5617;-65
2023/07/08 06:47:33;;;;;;;;;;;;;;;24.72;50.49;97201.59;4234388;28;5706;-64
2023/07/08 06:49:37;;;;;;;;;;;;;;;24.82;50.71;97215.91;4233984;28;6425;-65
2023/07/08 06:51:42;;;;;;;;;;;;;;;24.88;50.54;97222.91;4233975;28;6400;-64
2023/07/08 06:53:45;;;;;;;;;;;;;;;24.93;50.20;97195.84;4233756;28;5680;-62
2023/07/08 06:55:50;;;;;;;;;;;;;;;24.93;50.21;97212.09;4232664;27;5612;-63
2023/07/08 06:57:53;;;;;;;;;;;;;;;24.91;50.07;97198.00;4233980;28;5707;-63
2023/07/08 06:59:55;;;;;;;;;;;;;;;24.92;50.11;97196.94;4233582;28;5342;-63
2023/07/08 07:01:58;;;;;;;;;;;;;;;24.94;49.96;97196.66;4233405;28;5724;-63
2023/07/08 07:04:02;;;;;;;;;;;;;;;24.98;50.15;97213.94;4233810;28;5691;-62
2023/07/08 07:06:05;;;;;;;;;;;;;;;25.07;49.89;97219.66;4233467;28;5739;-61
2023/07/08 07:08:09;;;;;;;;;;;;;;;25.09;49.72;97217.47;4233944;28;6302;-63
2023/07/08 07:10:11;;;;;;;;;;;;;;;25.14;49.80;97218.28;4233851;28;5605;-63
2023/07/08 07:12:14;;;;;;;;;;;;;;;25.18;49.55;97213.13;4232693;27;5732;-62
2023/07/08 07:14:16;;;;;;;;;;;;;;;25.21;49.94;97204.44;4233549;28;5838;-63
2023/07/08 07:16:22;;;;;;;;;;;;;;;25.18;49.44;97200.41;4213310;28;5615;-63
2023/07/08 07:18:25;;;;;;;;;;;;;;;25.14;49.37;97193.94;4226566;28;5771;-63
2023/07/08 07:20:30;;;;;;;;;;;;;;;25.13;49.61;97191.47;4233825;28;5597;-62
2023/07/08 07:22:34;;;;;;;;;;;;;;;25.15;49.61;97195.53;4233226;28;6290;-62
2023/07/08 07:24:38;;;;;;;;;;;;;;;25.19;49.44;97201.19;4233444;28;5597;-62
2023/07/08 07:26:41;;;;;;;;;;;;;;;25.14;49.53;97209.31;4233393;28;7701;-63
2023/07/08 07:28:44;;;;;;;;;;;;;;;25.13;49.40;97208.50;4232736;27;5592;-63
2023/07/08 07:30:47;;;;;;;;;;;;;;;25.15;49.21;97208.25;4233912;28;6417;-63
2023/07/08 07:32:50;;;;;;;;;;;;;;;25.15;49.37;97219.91;4233720;28;5732;-65
2023/07/08 07:34:53;;;;;;;;;;;;;;;25.19;49.62;97228.25;4233183;28;5740;-63
2023/07/08 07:36:56;;;;;;;;;;;;;;;25.26;49.42;97231.50;4233598;28;5818;-63
2023/07/08 07:39:00;;;;;;;;;;;;;;;25.34;49.08;97240.91;4234251;28;6122;-64
2023/07/08 07:41:06;;;;;;;;;;;;;;;25.39;49.15;97230.88;4228711;28;5497;-63
2023/07/08 07:43:10;;;;;;;;;;;;;;;25.44;49.54;97233.56;4229565;28;5087;-63
2023/07/08 07:45:14;;;;;;;;;;;;;;;25.50;48.98;97215.41;4227132;28;5581;-63
2023/07/08 07:47:17;;;;;;;;;;;;;;;25.51;49.18;97208.91;4235497;28;5613;-63
2023/07/08 07:49:20;;;;;;;;;;;;;;;25.53;49.42;97202.13;4235834;28;5902;-64
2023/07/08 07:51:23;;;;;;;;;;;;;;;25.61;49.06;97214.28;4236020;28;5509;-64
2023/07/08 07:53:25;;;;;;;;;;;;;;;25.65;49.17;97209.09;4236548;28;6303;-64
2023/07/08 07:55:28;;;;;;;;;;;;;;;25.62;49.32;97215.06;4236595;28;5691;-63
2023/07/08 07:57:32;;;;;;;;;;;;;;;25.61;49.47;97208.06;4236389;28;5481;-63
2023/07/08 07:59:35;;;;;;;;;;;;;;;25.58;49.23;97205.88;4233587;27;6353;-63
2023/07/08 08:01:38;;;;;;;;;;;;;;;25.51;49.50;97207.00;4232456;27;5792;-63
2023/07/08 08:03:41;;;;;;;;;;;;;;;25.48;49.39;97215.69;4233017;28;5834;-63
2023/07/08 08:05:44;;;;;;;;;;;;;;;25.51;49.32;97208.91;4229179;28;6512;-63
2023/07/08 08:07:47;;;;;;;;;;;;;;;25.52;49.49;97210.53;4236991;27;5778;-63
2023/07/08 08:09:50;;;;;;;;;;;;;;;25.52;49.34;97216.75;4237559;27;5688;-63
2023/07/08 08:11:54;;;;;;;;;;;;;;;25.57;49.32;97217.78;4236044;28;5606;-63
2023/07/08 08:13:59;;;;;;;;;;;;;;;25.59;49.22;97216.41;4236300;28;5656;-62
2023/07/08 08:16:04;;;;;;;;;;;;;;;25.63;49.35;97222.09;4234917;27;5706;-63
2023/07/08 08:18:07;;;;;;;;;;;;;;;25.71;49.52;97224.25;4233852;27;5727;-63
2023/07/08 08:20:10;;;;;;;;;;;;;;;25.78;49.10;97230.16;4236135;28;5608;-63
2023/07/08 08:22:15;;;;;;;;;;;;;;;25.81;49.25;97233.13;4236193;28;5712;-63
2023/07/08 08:24:18;;;;;;;;;;;;;;;25.87;49.16;97236.63;4235647;28;5668;-63
2023/07/08 08:26:21;;;;;;;;;;;;;;;25.91;49.22;97234.16;4217616;28;5648;-63
2023/07/08 08:28:24;;;;;;;;;;;;;;;25.92;49.16;97233.84;4235944;28;5541;-62
2023/07/08 08:30:28;;;;;;;;;;;;;;;25.97;49.40;97239.25;4236081;28;5898;-64
2023/07/08 08:32:32;;;;;;;;;;;;;;;26.00;49.20;97232.47;4235882;28;5608;-64
2023/07/08 08:34:35;;;;;;;;;;;;;;;26.08;49.48;97234.59;4235803;28;5758;-63
2023/07/08 08:36:38;;;;;;;;;;;;;;;26.11;49.57;97234.00;4234535;27;5095;-64
2023/07/08 08:38:40;;;;;;;;;;;;;;;26.09;49.50;97239.72;4235663;28;6508;-64
2023/07/08 08:40:44;;;;;;;;;;;;;;;26.08;49.40;97240.00;4235617;28;5716;-64
2023/07/08 08:42:53;;;;;;;;;;;;;;;26.14;49.29;97236.16;4235773;28;5708;-64
2023/07/08 08:44:58;;;;;;;;;;;;;;;26.19;49.38;97241.56;4235586;28;5760;-64
2023/07/08 08:47:11;;;;;;;;;;;;;;;26.22;49.22;97248.28;4227693;28;5935;-64
2023/07/08 08:49:23;;;;;;;;;;;;;;;26.26;49.40;97246.63;4235773;27;5752;-64
2023/07/08 08:51:29;;;;;;;;;;;;;;;26.29;49.31;97243.38;4228749;27;5091;-63
2023/07/08 08:53:33;;;;;;;;;;;;;;;26.32;48.95;97240.09;4235165;28;5812;-63
2023/07/08 08:55:36;;;;;;;;;;;;;;;26.31;48.82;97238.47;4235891;28;5572;-63
2023/07/08 08:57:46;;;;;;;;;;;;;;;26.31;49.11;97238.47;4235537;28;5699;-63
2023/07/08 08:59:55;;;;;;;;;;;;;;;26.28;49.21;97222.78;4230488;28;5605;-63
2023/07/08 09:01:59;;;;;;;;;;;;;;;26.29;49.01;97240.66;4235452;28;5723;-62
2023/07/08 09:04:09;;;;;;;;;;;;;;;26.30;49.22;97234.97;4225562;27;5769;-59
2023/07/08 09:06:15;;;;;;;;;;;;;;;26.31;48.82;97238.47;4229918;28;5612;-59
2023/07/08 09:08:34;;;;;;;;;;;;;;;26.31;48.91;97238.47;4232519;27;5969;-59
2023/07/08 09:10:46;;;;;;;;;;;;;;;26.36;49.17;97241.13;4229769;28;5653;-60
2023/07/08 09:12:51;;;;;;;;;;;;;;;26.40;48.68;97247.66;4234205;28;5721;-59
2023/07/08 09:14:54;;;;;;;;;;;;;;;26.43;49.01;97241.66;4230951;28;5646;-59
2023/07/08 09:17:14;;;;;;;;;;;;;;;26.42;48.96;97234.63;4226342;28;5645;-59
2023/07/08 09:19:27;;;;;;;;;;;;;;;26.42;48.64;97242.75;4233719;28;5823;-60
2023/07/08 09:21:37;;;;;;;;;;;;;;;26.46;48.65;97240.28;4231697;28;5727;-60
2023/07/08 09:23:42;;;;;;;;;;;;;;;26.48;48.85;97241.59;4233145;28;6425;-60
2023/07/08 09:25:52;;;;;;;;;;;;;;;26.45;48.80;97238.66;4232327;27;5684;-60
2023/07/08 09:27:54;;;;;;;;;;;;;;;26.43;49.06;97230.81;4233072;28;5692;-60
2023/07/08 09:29:57;;;;;;;;;;;;;;;26.44;49.34;97231.63;4233379;28;5800;-60
2023/07/08 09:32:12;;;;;;;;;;;;;;;26.44;49.28;97232.44;4224783;28;5668;-60
2023/07/08 09:34:18;;;;;;;;;;;;;;;26.46;49.04;97241.09;4233079;28;5584;-60
2023/07/08 09:36:24;;;;;;;;;;;;;;;26.47;49.39;97236.47;4232906;28;5688;-60
2023/07/08 09:38:27;;;;;;;;;;;;;;;26.47;49.34;97237.28;4233017;28;5726;-60
2023/07/08 09:40:32;;;;;;;;;;;;;;;26.47;49.17;97241.88;4232193;28;5589;-60
2023/07/08 09:42:36;;;;;;;;;;;;;;;26.47;49.24;97234.56;4232058;27;7783;-60
2023/07/08 09:44:39;;;;;;;;;;;;;;;26.47;49.50;97229.16;4232855;28;5723;-59
2023/07/08 09:46:43;;;;;;;;;;;;;;;26.48;49.39;97227.25;4232449;28;5688;-59
2023/07/08 09:48:46;;;;;;;;;;;;;;;26.50;49.16;97236.69;4232511;28;5689;-58
2023/07/08 09:50:52;;;;;;;;;;;;;;;26.52;49.19;97228.31;4234804;27;5774;-59
2023/07/08 09:52:59;;;;;;;;;;;;;;;26.50;49.42;97217.72;4235926;27;5588;-59
2023/07/08 09:55:02;;;;;;;;;;;;;;;26.53;49.42;97225.31;4224254;28;5896;-59
2023/07/08 09:57:13;;;;;;;;;;;;;;;26.54;49.27;97226.94;4231601;28;6339;-59
2023/07/08 09:59:16;;;;;;;;;;;;;;;26.56;49.40;97226.63;4230785;28;5976;-59
2023/07/08 10:01:26;;;;;;;;;;;;;;;26.56;49.26;97224.72;4232017;28;6259;-59
2023/07/08 10:03:31;;;;;;;;;;;;;;;26.58;49.38;97216.31;4229958;28;5707;-59
2023/07/08 10:05:38;;;;;;;;;;;;;;;26.60;49.46;97220.34;4231803;28;5951;-59
2023/07/08 10:07:41;;;;;;;;;;;;;;;26.62;49.84;97230.94;4231760;28;5806;-59
2023/07/08 10:09:49;;;;;;;;;;;;;;;26.63;49.68;97217.09;4232892;28;5600;-60
2023/07/08 10:11:59;;;;;;;;;;;;;;;26.64;49.86;97218.69;4232620;28;5683;-61
2023/07/08 10:14:08;;;;;;;;;;;;;;;26.67;49.86;97220.81;4232693;28;5581;-61
2023/07/08 10:16:24;;;;;;;;;;;;;;;26.69;50.03;97224.06;4226038;27;5585;-60
2023/07/08 10:18:30;;;;;;;;;;;;;;;26.70;50.00;97225.66;4232775;28;5608;-61
2023/07/08 10:20:43;;;;;;;;;;;;;;;26.74;49.93;97227.84;4232748;28;5779;-60
2023/07/08 10:22:58;;;;;;;;;;;;;;;26.76;50.09;97222.94;4231669;28;5692;-60
2023/07/08 10:25:27;;;;;;;;;;;;;;;26.80;50.24;97218.53;4231423;28;5713;-61
2023/07/08 10:27:37;;;;;;;;;;;;;;;26.84;50.17;97225.00;4230564;28;5676;-61
2023/07/08 10:29:48;;;;;;;;;;;;;;;26.84;50.08;97220.41;4231895;28;5486;-60
2023/07/08 10:31:57;;;;;;;;;;;;;;;26.84;50.12;97219.56;4225353;28;5671;-61
2023/07/08 10:34:13;;;;;;;;;;;;;;;26.83;50.42;97223.38;4230450;27;5709;-61
2023/07/08 10:36:24;;;;;;;;;;;;;;;26.85;50.38;97224.72;4226298;28;5825;-61
2023/07/08 10:38:42;;;;;;;;;;;;;;;26.86;50.23;97220.91;4232413;28;5684;-61
2023/07/08 10:40:53;;;;;;;;;;;;;;;26.88;50.58;97226.06;4225780;28;5635;-61
2023/07/08 10:43:16;;;;;;;;;;;;;;;26.88;50.57;97221.44;4232170;28;5846;-61
2023/07/08 10:45:31;;;;;;;;;;;;;;;26.89;50.67;97212.19;4225459;28;5855;-61
2023/07/08 10:47:49;;;;;;;;;;;;;;;26.91;50.70;97211.91;4232520;28;5601;-61
2023/07/08 10:50:02;;;;;;;;;;;;;;;26.93;50.86;97213.22;4228841;27;6472;-61
2023/07/08 10:52:24;;;;;;;;;;;;;;;26.95;50.72;97215.66;4234704;27;5810;-62
2023/07/08 10:54:49;;;;;;;;;;;;;;;26.98;50.82;97212.38;4228738;28;5811;-62
2023/07/08 10:56:56;;;;;;;;;;;;;;;26.98;51.03;97209.66;4232310;28;6282;-61
2023/07/08 10:59:16;;;;;;;;;;;;;;;27.00;51.08;97218.31;4223374;28;5608;-62